sensor_id;sensor_type;location;lat;lon;timestamp;P1;durP1;ratioP1;P2;durP2;ratioP2
75441;SDS011;64019;48.312;14.226;2022-11-23T00:00:26;10.47;;;6.30;;
75441;SDS011;64019;48.312;14.226;2022-11-23T00:02:53;10.90;;;6.57;;
75441;SDS011;64019;48.312;14.226;2022-11-23T00:05:19;11.57;;;6.70;;
75441;SDS011;64019;48.312;14.226;2022-11-23T00:07:45;9.13;;;6.00;;
75441;SDS011;64019;48.312;14.226;2022-11-23T00:10:10;9.70;;;5.43;;
75441;SDS011;64019;48.312;14.226;2022-11-23T00:12:36;8.53;;;5.30;;
75441;SDS011;64019;48.312;14.226;2022-11-23T00:15:02;8.93;;;5.73;;
75441;SDS011;64019;48.312;14.226;2022-11-23T00:17:29;8.53;;;5.60;;
75441;SDS011;64019;48.312;14.226;2022-11-23T00:19:54;10.50;;;6.23;;
75441;SDS011;64019;48.312;14.226;2022-11-23T00:22:20;8.13;;;5.67;;
75441;SDS011;64019;48.312;14.226;2022-11-23T00:24:46;10.20;;;6.30;;
75441;SDS011;64019;48.312;14.226;2022-11-23T00:27:11;8.10;;;6.10;;
75441;SDS011;64019;48.312;14.226;2022-11-23T00:29:37;8.03;;;5.93;;
75441;SDS011;64019;48.312;14.226;2022-11-23T00:32:03;8.97;;;6.10;;
75441;SDS011;64019;48.312;14.226;2022-11-23T00:34:28;9.33;;;6.03;;
75441;SDS011;64019;48.312;14.226;2022-11-23T00:36:54;9.13;;;5.73;;
75441;SDS011;64019;48.312;14.226;2022-11-23T00:39:20;9.63;;;5.70;;
75441;SDS011;64019;48.312;14.226;2022-11-23T00:41:45;12.53;;;6.40;;
75441;SDS011;64019;48.312;14.226;2022-11-23T00:44:11;10.67;;;6.00;;
75441;SDS011;64019;48.312;14.226;2022-11-23T00:46:37;9.60;;;6.00;;
75441;SDS011;64019;48.312;14.226;2022-11-23T00:49:02;7.77;;;5.30;;
75441;SDS011;64019;48.312;14.226;2022-11-23T00:51:32;8.30;;;5.97;;
75441;SDS011;64019;48.312;14.226;2022-11-23T00:54:00;9.47;;;5.83;;
75441;SDS011;64019;48.312;14.226;2022-11-23T00:56:27;9.63;;;5.67;;
75441;SDS011;64019;48.312;14.226;2022-11-23T00:58:54;9.90;;;5.33;;
75441;SDS011;64019;48.312;14.226;2022-11-23T01:01:22;9.90;;;5.97;;
75441;SDS011;64019;48.312;14.226;2022-11-23T01:03:50;10.97;;;6.23;;
75441;SDS011;64019;48.312;14.226;2022-11-23T01:06:23;9.30;;;6.30;;
75441;SDS011;64019;48.312;14.226;2022-11-23T01:08:51;9.27;;;6.13;;
75441;SDS011;64019;48.312;14.226;2022-11-23T01:11:18;10.80;;;6.80;;
75441;SDS011;64019;48.312;14.226;2022-11-23T01:13:45;8.87;;;5.80;;
75441;SDS011;64019;48.312;14.226;2022-11-23T01:16:15;8.60;;;6.20;;
75441;SDS011;64019;48.312;14.226;2022-11-23T01:18:46;10.03;;;6.17;;
75441;SDS011;64019;48.312;14.226;2022-11-23T01:21:12;10.83;;;6.20;;
75441;SDS011;64019;48.312;14.226;2022-11-23T01:23:37;11.10;;;6.53;;
75441;SDS011;64019;48.312;14.226;2022-11-23T01:26:07;8.63;;;6.00;;
75441;SDS011;64019;48.312;14.226;2022-11-23T01:28:35;9.53;;;6.10;;
75441;SDS011;64019;48.312;14.226;2022-11-23T01:39:28;9.37;;;5.83;;
75441;SDS011;64019;48.312;14.226;2022-11-23T01:41:54;11.50;;;6.90;;
75441;SDS011;64019;48.312;14.226;2022-11-23T01:44:21;9.83;;;5.90;;
75441;SDS011;64019;48.312;14.226;2022-11-23T01:46:50;10.03;;;6.40;;
75441;SDS011;64019;48.312;14.226;2022-11-23T01:49:15;9.13;;;6.10;;
75441;SDS011;64019;48.312;14.226;2022-11-23T01:51:43;8.53;;;5.93;;
75441;SDS011;64019;48.312;14.226;2022-11-23T01:54:20;9.50;;;6.43;;
75441;SDS011;64019;48.312;14.226;2022-11-23T01:56:56;13.13;;;6.47;;
75441;SDS011;64019;48.312;14.226;2022-11-23T01:59:29;8.40;;;5.80;;
75441;SDS011;64019;48.312;14.226;2022-11-23T02:01:57;9.10;;;6.00;;
75441;SDS011;64019;48.312;14.226;2022-11-23T02:04:26;8.80;;;5.70;;
75441;SDS011;64019;48.312;14.226;2022-11-23T02:06:58;9.73;;;6.57;;
75441;SDS011;64019;48.312;14.226;2022-11-23T02:09:26;7.87;;;5.40;;
75441;SDS011;64019;48.312;14.226;2022-11-23T02:11:54;11.20;;;5.23;;
75441;SDS011;64019;48.312;14.226;2022-11-23T02:14:20;9.87;;;6.33;;
75441;SDS011;64019;48.312;14.226;2022-11-23T02:16:46;8.73;;;5.87;;
75441;SDS011;64019;48.312;14.226;2022-11-23T02:19:15;10.73;;;6.40;;
75441;SDS011;64019;48.312;14.226;2022-11-23T02:22:01;8.70;;;5.83;;
75441;SDS011;64019;48.312;14.226;2022-11-23T02:24:35;7.97;;;5.57;;
75441;SDS011;64019;48.312;14.226;2022-11-23T02:27:09;8.63;;;5.73;;
75441;SDS011;64019;48.312;14.226;2022-11-23T02:29:35;8.43;;;5.37;;
75441;SDS011;64019;48.312;14.226;2022-11-23T02:32:01;6.83;;;5.23;;
75441;SDS011;64019;48.312;14.226;2022-11-23T02:34:26;7.27;;;4.93;;
75441;SDS011;64019;48.312;14.226;2022-11-23T02:36:52;9.40;;;5.50;;
75441;SDS011;64019;48.312;14.226;2022-11-23T02:41:52;8.23;;;5.40;;
75441;SDS011;64019;48.312;14.226;2022-11-23T02:44:33;6.47;;;4.90;;
75441;SDS011;64019;48.312;14.226;2022-11-23T02:47:28;8.83;;;5.70;;
75441;SDS011;64019;48.312;14.226;2022-11-23T02:49:53;8.50;;;5.77;;
75441;SDS011;64019;48.312;14.226;2022-11-23T02:52:19;10.23;;;6.07;;
75441;SDS011;64019;48.312;14.226;2022-11-23T02:54:45;11.03;;;6.03;;
75441;SDS011;64019;48.312;14.226;2022-11-23T02:57:10;7.80;;;5.70;;
75441;SDS011;64019;48.312;14.226;2022-11-23T02:59:36;7.90;;;6.07;;
75441;SDS011;64019;48.312;14.226;2022-11-23T03:02:02;9.23;;;5.57;;
75441;SDS011;64019;48.312;14.226;2022-11-23T03:04:29;7.53;;;5.57;;
75441;SDS011;64019;48.312;14.226;2022-11-23T03:06:55;8.87;;;5.53;;
75441;SDS011;64019;48.312;14.226;2022-11-23T03:09:21;7.87;;;5.43;;
75441;SDS011;64019;48.312;14.226;2022-11-23T03:11:47;9.07;;;6.27;;
75441;SDS011;64019;48.312;14.226;2022-11-23T03:14:13;9.00;;;6.17;;
75441;SDS011;64019;48.312;14.226;2022-11-23T03:16:38;8.63;;;5.93;;
75441;SDS011;64019;48.312;14.226;2022-11-23T03:19:04;10.33;;;6.43;;
75441;SDS011;64019;48.312;14.226;2022-11-23T03:21:30;9.57;;;5.93;;
75441;SDS011;64019;48.312;14.226;2022-11-23T03:23:55;9.27;;;6.47;;
75441;SDS011;64019;48.312;14.226;2022-11-23T03:26:22;8.37;;;5.73;;
75441;SDS011;64019;48.312;14.226;2022-11-23T03:28:48;11.27;;;6.43;;
75441;SDS011;64019;48.312;14.226;2022-11-23T03:31:13;8.27;;;5.97;;
75441;SDS011;64019;48.312;14.226;2022-11-23T03:33:39;9.70;;;6.60;;
75441;SDS011;64019;48.312;14.226;2022-11-23T03:36:05;10.80;;;6.10;;
75441;SDS011;64019;48.312;14.226;2022-11-23T03:38:31;8.17;;;5.93;;
75441;SDS011;64019;48.312;14.226;2022-11-23T03:40:56;10.53;;;6.73;;
75441;SDS011;64019;48.312;14.226;2022-11-23T03:43:22;7.73;;;6.40;;
75441;SDS011;64019;48.312;14.226;2022-11-23T03:45:48;10.13;;;6.43;;
75441;SDS011;64019;48.312;14.226;2022-11-23T03:48:14;9.77;;;6.63;;
75441;SDS011;64019;48.312;14.226;2022-11-23T03:50:40;7.90;;;5.83;;
75441;SDS011;64019;48.312;14.226;2022-11-23T03:53:05;9.83;;;6.00;;
75441;SDS011;64019;48.312;14.226;2022-11-23T03:55:31;11.63;;;6.17;;
75441;SDS011;64019;48.312;14.226;2022-11-23T03:57:58;7.57;;;5.23;;
75441;SDS011;64019;48.312;14.226;2022-11-23T04:00:27;8.37;;;5.70;;
75441;SDS011;64019;48.312;14.226;2022-11-23T04:02:53;6.13;;;5.00;;
75441;SDS011;64019;48.312;14.226;2022-11-23T04:05:20;9.07;;;5.77;;
75441;SDS011;64019;48.312;14.226;2022-11-23T04:07:46;9.17;;;5.90;;
75441;SDS011;64019;48.312;14.226;2022-11-23T04:10:15;9.33;;;5.80;;
75441;SDS011;64019;48.312;14.226;2022-11-23T04:12:42;8.90;;;5.60;;
75441;SDS011;64019;48.312;14.226;2022-11-23T04:15:08;10.73;;;5.90;;
75441;SDS011;64019;48.312;14.226;2022-11-23T04:17:34;9.03;;;5.63;;
75441;SDS011;64019;48.312;14.226;2022-11-23T04:19:59;9.47;;;5.93;;
75441;SDS011;64019;48.312;14.226;2022-11-23T04:22:25;8.93;;;6.43;;
75441;SDS011;64019;48.312;14.226;2022-11-23T04:24:51;9.97;;;6.13;;
75441;SDS011;64019;48.312;14.226;2022-11-23T04:27:16;8.10;;;5.83;;
75441;SDS011;64019;48.312;14.226;2022-11-23T04:29:42;8.70;;;6.20;;
75441;SDS011;64019;48.312;14.226;2022-11-23T04:32:08;8.70;;;5.97;;
75441;SDS011;64019;48.312;14.226;2022-11-23T04:34:33;8.47;;;5.73;;
75441;SDS011;64019;48.312;14.226;2022-11-23T04:36:59;9.27;;;6.30;;
75441;SDS011;64019;48.312;14.226;2022-11-23T04:39:24;8.93;;;5.93;;
75441;SDS011;64019;48.312;14.226;2022-11-23T04:41:50;7.70;;;5.87;;
75441;SDS011;64019;48.312;14.226;2022-11-23T04:44:16;7.67;;;5.00;;
75441;SDS011;64019;48.312;14.226;2022-11-23T04:46:41;9.60;;;5.93;;
75441;SDS011;64019;48.312;14.226;2022-11-23T04:49:08;8.73;;;5.40;;
75441;SDS011;64019;48.312;14.226;2022-11-23T04:51:33;7.63;;;5.40;;
75441;SDS011;64019;48.312;14.226;2022-11-23T04:53:59;9.10;;;5.57;;
75441;SDS011;64019;48.312;14.226;2022-11-23T04:56:25;9.13;;;5.30;;
75441;SDS011;64019;48.312;14.226;2022-11-23T04:58:50;7.90;;;6.00;;
75441;SDS011;64019;48.312;14.226;2022-11-23T05:01:16;6.80;;;5.50;;
75441;SDS011;64019;48.312;14.226;2022-11-23T05:03:41;11.47;;;6.03;;
75441;SDS011;64019;48.312;14.226;2022-11-23T05:06:08;6.87;;;5.43;;
75441;SDS011;64019;48.312;14.226;2022-11-23T05:08:33;9.30;;;5.70;;
75441;SDS011;64019;48.312;14.226;2022-11-23T05:10:59;8.47;;;5.53;;
75441;SDS011;64019;48.312;14.226;2022-11-23T05:13:25;10.43;;;6.30;;
75441;SDS011;64019;48.312;14.226;2022-11-23T05:15:50;6.47;;;5.70;;
75441;SDS011;64019;48.312;14.226;2022-11-23T05:18:16;10.90;;;5.27;;
75441;SDS011;64019;48.312;14.226;2022-11-23T05:20:42;7.37;;;5.30;;
75441;SDS011;64019;48.312;14.226;2022-11-23T05:23:08;8.13;;;5.57;;
75441;SDS011;64019;48.312;14.226;2022-11-23T05:25:34;8.93;;;6.00;;
75441;SDS011;64019;48.312;14.226;2022-11-23T05:28:00;7.27;;;5.13;;
75441;SDS011;64019;48.312;14.226;2022-11-23T05:30:26;9.27;;;5.57;;
75441;SDS011;64019;48.312;14.226;2022-11-23T05:32:51;7.70;;;5.67;;
75441;SDS011;64019;48.312;14.226;2022-11-23T05:35:17;8.43;;;5.57;;
75441;SDS011;64019;48.312;14.226;2022-11-23T05:37:43;9.57;;;5.50;;
75441;SDS011;64019;48.312;14.226;2022-11-23T05:40:08;8.37;;;5.83;;
75441;SDS011;64019;48.312;14.226;2022-11-23T05:42:35;7.63;;;5.40;;
75441;SDS011;64019;48.312;14.226;2022-11-23T05:45:01;8.70;;;5.80;;
75441;SDS011;64019;48.312;14.226;2022-11-23T05:47:27;8.43;;;6.10;;
75441;SDS011;64019;48.312;14.226;2022-11-23T05:49:52;8.90;;;6.00;;
75441;SDS011;64019;48.312;14.226;2022-11-23T05:52:18;10.43;;;5.40;;
75441;SDS011;64019;48.312;14.226;2022-11-23T05:54:44;8.53;;;6.60;;
75441;SDS011;64019;48.312;14.226;2022-11-23T05:57:09;9.63;;;6.20;;
75441;SDS011;64019;48.312;14.226;2022-11-23T05:59:35;7.97;;;5.30;;
75441;SDS011;64019;48.312;14.226;2022-11-23T06:02:01;7.53;;;5.67;;
75441;SDS011;64019;48.312;14.226;2022-11-23T06:04:26;10.80;;;6.97;;
75441;SDS011;64019;48.312;14.226;2022-11-23T06:06:52;10.00;;;5.43;;
75441;SDS011;64019;48.312;14.226;2022-11-23T06:09:24;8.60;;;5.30;;
75441;SDS011;64019;48.312;14.226;2022-11-23T06:11:51;7.17;;;5.50;;
75441;SDS011;64019;48.312;14.226;2022-11-23T06:14:16;9.97;;;6.33;;
75441;SDS011;64019;48.312;14.226;2022-11-23T06:16:42;12.33;;;6.00;;
75441;SDS011;64019;48.312;14.226;2022-11-23T06:19:08;9.17;;;5.77;;
75441;SDS011;64019;48.312;14.226;2022-11-23T06:21:33;9.60;;;5.73;;
75441;SDS011;64019;48.312;14.226;2022-11-23T06:23:59;9.53;;;6.57;;
75441;SDS011;64019;48.312;14.226;2022-11-23T06:26:25;11.57;;;7.30;;
75441;SDS011;64019;48.312;14.226;2022-11-23T06:28:51;13.10;;;6.80;;
75441;SDS011;64019;48.312;14.226;2022-11-23T06:31:16;9.03;;;5.97;;
75441;SDS011;64019;48.312;14.226;2022-11-23T06:33:42;9.60;;;6.73;;
75441;SDS011;64019;48.312;14.226;2022-11-23T06:36:08;11.03;;;6.77;;
75441;SDS011;64019;48.312;14.226;2022-11-23T06:38:34;11.97;;;7.10;;
75441;SDS011;64019;48.312;14.226;2022-11-23T06:41:00;8.80;;;5.70;;
75441;SDS011;64019;48.312;14.226;2022-11-23T06:43:27;8.43;;;5.30;;
75441;SDS011;64019;48.312;14.226;2022-11-23T06:45:53;6.90;;;4.93;;
75441;SDS011;64019;48.312;14.226;2022-11-23T06:48:20;11.57;;;5.07;;
75441;SDS011;64019;48.312;14.226;2022-11-23T06:50:46;8.40;;;5.53;;
75441;SDS011;64019;48.312;14.226;2022-11-23T06:53:11;10.80;;;5.67;;
75441;SDS011;64019;48.312;14.226;2022-11-23T06:55:37;7.43;;;5.23;;
75441;SDS011;64019;48.312;14.226;2022-11-23T06:58:03;6.80;;;5.37;;
75441;SDS011;64019;48.312;14.226;2022-11-23T07:00:29;7.33;;;5.30;;
75441;SDS011;64019;48.312;14.226;2022-11-23T07:02:55;9.00;;;6.03;;
75441;SDS011;64019;48.312;14.226;2022-11-23T07:05:22;7.50;;;5.60;;
75441;SDS011;64019;48.312;14.226;2022-11-23T07:07:48;9.13;;;5.23;;
75441;SDS011;64019;48.312;14.226;2022-11-23T07:10:13;7.67;;;5.43;;
75441;SDS011;64019;48.312;14.226;2022-11-23T07:12:39;8.30;;;5.43;;
75441;SDS011;64019;48.312;14.226;2022-11-23T07:15:06;8.47;;;5.27;;
75441;SDS011;64019;48.312;14.226;2022-11-23T07:17:32;6.70;;;5.03;;
75441;SDS011;64019;48.312;14.226;2022-11-23T07:20:03;7.90;;;4.80;;
75441;SDS011;64019;48.312;14.226;2022-11-23T07:22:29;6.70;;;4.87;;
75441;SDS011;64019;48.312;14.226;2022-11-23T07:24:54;7.63;;;5.53;;
75441;SDS011;64019;48.312;14.226;2022-11-23T07:27:20;10.70;;;5.43;;
75441;SDS011;64019;48.312;14.226;2022-11-23T07:29:45;8.33;;;5.73;;
75441;SDS011;64019;48.312;14.226;2022-11-23T07:32:11;7.57;;;5.33;;
75441;SDS011;64019;48.312;14.226;2022-11-23T07:34:39;7.77;;;4.83;;
75441;SDS011;64019;48.312;14.226;2022-11-23T07:37:04;8.90;;;5.17;;
75441;SDS011;64019;48.312;14.226;2022-11-23T07:39:31;7.07;;;5.40;;
75441;SDS011;64019;48.312;14.226;2022-11-23T07:41:56;10.23;;;5.47;;
75441;SDS011;64019;48.312;14.226;2022-11-23T07:44:22;8.77;;;5.27;;
75441;SDS011;64019;48.312;14.226;2022-11-23T07:46:48;7.40;;;4.63;;
75441;SDS011;64019;48.312;14.226;2022-11-23T07:49:17;6.97;;;5.30;;
75441;SDS011;64019;48.312;14.226;2022-11-23T07:51:43;7.03;;;5.17;;
75441;SDS011;64019;48.312;14.226;2022-11-23T07:54:08;6.50;;;5.30;;
75441;SDS011;64019;48.312;14.226;2022-11-23T07:56:34;7.33;;;4.87;;
75441;SDS011;64019;48.312;14.226;2022-11-23T07:59:00;6.23;;;4.63;;
75441;SDS011;64019;48.312;14.226;2022-11-23T08:01:25;7.80;;;5.23;;
75441;SDS011;64019;48.312;14.226;2022-11-23T08:03:51;5.40;;;4.33;;
75441;SDS011;64019;48.312;14.226;2022-11-23T08:06:16;4.63;;;3.80;;
75441;SDS011;64019;48.312;14.226;2022-11-23T08:08:42;6.57;;;4.87;;
75441;SDS011;64019;48.312;14.226;2022-11-23T08:11:08;6.37;;;4.57;;
75441;SDS011;64019;48.312;14.226;2022-11-23T08:13:35;5.80;;;4.53;;
75441;SDS011;64019;48.312;14.226;2022-11-23T08:16:03;7.57;;;4.97;;
75441;SDS011;64019;48.312;14.226;2022-11-23T08:18:29;6.63;;;4.50;;
75441;SDS011;64019;48.312;14.226;2022-11-23T08:20:57;6.63;;;5.03;;
75441;SDS011;64019;48.312;14.226;2022-11-23T08:23:24;7.50;;;5.23;;
75441;SDS011;64019;48.312;14.226;2022-11-23T08:25:50;7.03;;;4.60;;
75441;SDS011;64019;48.312;14.226;2022-11-23T08:28:16;11.90;;;8.57;;
75441;SDS011;64019;48.312;14.226;2022-11-23T08:30:42;6.90;;;5.20;;
75441;SDS011;64019;48.312;14.226;2022-11-23T08:33:08;5.67;;;3.93;;
75441;SDS011;64019;48.312;14.226;2022-11-23T08:35:34;6.33;;;4.03;;
75441;SDS011;64019;48.312;14.226;2022-11-23T08:38:01;5.17;;;4.13;;
75441;SDS011;64019;48.312;14.226;2022-11-23T08:40:28;5.20;;;3.77;;
75441;SDS011;64019;48.312;14.226;2022-11-23T08:42:53;5.33;;;4.37;;
75441;SDS011;64019;48.312;14.226;2022-11-23T08:45:19;6.60;;;4.40;;
75441;SDS011;64019;48.312;14.226;2022-11-23T08:47:45;5.73;;;3.30;;
75441;SDS011;64019;48.312;14.226;2022-11-23T08:50:11;6.73;;;4.10;;
75441;SDS011;64019;48.312;14.226;2022-11-23T08:52:38;4.27;;;3.30;;
75441;SDS011;64019;48.312;14.226;2022-11-23T08:55:03;5.43;;;3.90;;
75441;SDS011;64019;48.312;14.226;2022-11-23T08:57:30;8.70;;;4.20;;
75441;SDS011;64019;48.312;14.226;2022-11-23T08:59:55;11.30;;;5.70;;
75441;SDS011;64019;48.312;14.226;2022-11-23T09:02:21;13.90;;;7.30;;
75441;SDS011;64019;48.312;14.226;2022-11-23T09:04:47;8.27;;;5.70;;
75441;SDS011;64019;48.312;14.226;2022-11-23T09:07:13;5.87;;;4.17;;
75441;SDS011;64019;48.312;14.226;2022-11-23T09:09:38;6.33;;;4.67;;
75441;SDS011;64019;48.312;14.226;2022-11-23T09:12:04;6.00;;;4.30;;
75441;SDS011;64019;48.312;14.226;2022-11-23T09:14:30;5.53;;;4.40;;
75441;SDS011;64019;48.312;14.226;2022-11-23T09:16:56;7.20;;;4.60;;
75441;SDS011;64019;48.312;14.226;2022-11-23T09:19:22;6.30;;;4.63;;
75441;SDS011;64019;48.312;14.226;2022-11-23T09:21:48;6.73;;;4.63;;
75441;SDS011;64019;48.312;14.226;2022-11-23T09:24:14;8.30;;;5.50;;
75441;SDS011;64019;48.312;14.226;2022-11-23T09:26:39;6.43;;;4.43;;
75441;SDS011;64019;48.312;14.226;2022-11-23T09:29:05;5.90;;;4.50;;
75441;SDS011;64019;48.312;14.226;2022-11-23T09:31:32;7.00;;;4.70;;
75441;SDS011;64019;48.312;14.226;2022-11-23T09:33:59;8.60;;;4.40;;
75441;SDS011;64019;48.312;14.226;2022-11-23T09:36:25;6.33;;;4.70;;
75441;SDS011;64019;48.312;14.226;2022-11-23T09:38:51;10.33;;;5.43;;
75441;SDS011;64019;48.312;14.226;2022-11-23T09:44:00;9.23;;;6.10;;
75441;SDS011;64019;48.312;14.226;2022-11-23T09:49:20;10.70;;;6.10;;
75441;SDS011;64019;48.312;14.226;2022-11-23T09:51:46;10.93;;;6.13;;
75441;SDS011;64019;48.312;14.226;2022-11-23T09:56:55;9.00;;;6.13;;
75441;SDS011;64019;48.312;14.226;2022-11-23T10:01:47;9.20;;;5.93;;
75441;SDS011;64019;48.312;14.226;2022-11-23T10:04:16;11.93;;;7.17;;
75441;SDS011;64019;48.312;14.226;2022-11-23T10:06:44;12.00;;;7.20;;
75441;SDS011;64019;48.312;14.226;2022-11-23T10:09:27;9.30;;;5.70;;
75441;SDS011;64019;48.312;14.226;2022-11-23T10:25:25;7.47;;;4.90;;
75441;SDS011;64019;48.312;14.226;2022-11-23T10:27:57;8.80;;;5.17;;
75441;SDS011;64019;48.312;14.226;2022-11-23T10:30:26;6.97;;;4.63;;
75441;SDS011;64019;48.312;14.226;2022-11-23T10:33:04;10.17;;;5.43;;
75441;SDS011;64019;48.312;14.226;2022-11-23T10:35:34;6.23;;;4.70;;
75441;SDS011;64019;48.312;14.226;2022-11-23T10:51:57;7.73;;;4.97;;
75441;SDS011;64019;48.312;14.226;2022-11-23T10:55:01;7.90;;;4.40;;
75441;SDS011;64019;48.312;14.226;2022-11-23T10:59:56;6.10;;;4.20;;
75441;SDS011;64019;48.312;14.226;2022-11-23T11:02:23;6.23;;;4.40;;
75441;SDS011;64019;48.312;14.226;2022-11-23T11:04:49;5.80;;;4.63;;
75441;SDS011;64019;48.312;14.226;2022-11-23T11:07:35;6.70;;;4.10;;
75441;SDS011;64019;48.312;14.226;2022-11-23T11:10:02;5.87;;;3.77;;
75441;SDS011;64019;48.312;14.226;2022-11-23T11:12:31;5.90;;;3.60;;
75441;SDS011;64019;48.312;14.226;2022-11-23T11:17:33;6.50;;;3.80;;
75441;SDS011;64019;48.312;14.226;2022-11-23T11:20:00;7.67;;;4.00;;
75441;SDS011;64019;48.312;14.226;2022-11-23T11:22:47;5.80;;;3.60;;
75441;SDS011;64019;48.312;14.226;2022-11-23T11:25:25;6.67;;;3.27;;
75441;SDS011;64019;48.312;14.226;2022-11-23T11:27:51;5.00;;;3.33;;
75441;SDS011;64019;48.312;14.226;2022-11-23T11:30:21;5.67;;;3.33;;
75441;SDS011;64019;48.312;14.226;2022-11-23T11:33:01;5.63;;;4.13;;
75441;SDS011;64019;48.312;14.226;2022-11-23T11:35:36;4.43;;;3.50;;
75441;SDS011;64019;48.312;14.226;2022-11-23T11:38:16;10.90;;;3.60;;
75441;SDS011;64019;48.312;14.226;2022-11-23T11:40:45;4.23;;;3.40;;
75441;SDS011;64019;48.312;14.226;2022-11-23T11:43:24;6.90;;;3.70;;
75441;SDS011;64019;48.312;14.226;2022-11-23T11:45:58;5.93;;;2.90;;
75441;SDS011;64019;48.312;14.226;2022-11-23T11:48:34;4.60;;;3.60;;
75441;SDS011;64019;48.312;14.226;2022-11-23T11:52:05;6.63;;;3.67;;
75441;SDS011;64019;48.312;14.226;2022-11-23T11:57:15;4.87;;;3.10;;
75441;SDS011;64019;48.312;14.226;2022-11-23T11:59:55;6.07;;;3.20;;
75441;SDS011;64019;48.312;14.226;2022-11-23T12:08:00;8.23;;;4.30;;
75441;SDS011;64019;48.312;14.226;2022-11-23T12:10:56;6.67;;;3.53;;
75441;SDS011;64019;48.312;14.226;2022-11-23T12:13:24;6.40;;;3.00;;
75441;SDS011;64019;48.312;14.226;2022-11-23T12:26:09;8.33;;;4.37;;
75441;SDS011;64019;48.312;14.226;2022-11-23T12:48:04;6.33;;;4.00;;
75441;SDS011;64019;48.312;14.226;2022-11-23T12:59:17;7.67;;;3.57;;
75441;SDS011;64019;48.312;14.226;2022-11-23T13:01:48;6.60;;;3.60;;
75441;SDS011;64019;48.312;14.226;2022-11-23T13:20:39;5.93;;;3.83;;
75441;SDS011;64019;48.312;14.226;2022-11-23T13:23:35;7.20;;;3.93;;
75441;SDS011;64019;48.312;14.226;2022-11-23T13:26:10;7.90;;;3.80;;
75441;SDS011;64019;48.312;14.226;2022-11-23T13:28:47;6.83;;;3.57;;
75441;SDS011;64019;48.312;14.226;2022-11-23T13:33:40;6.00;;;3.83;;
75441;SDS011;64019;48.312;14.226;2022-11-23T13:38:56;6.03;;;3.97;;
75441;SDS011;64019;48.312;14.226;2022-11-23T13:44:35;6.70;;;3.93;;
75441;SDS011;64019;48.312;14.226;2022-11-23T13:46:57;7.53;;;4.50;;
75441;SDS011;64019;48.312;14.226;2022-11-23T13:49:51;7.23;;;3.90;;
75441;SDS011;64019;48.312;14.226;2022-11-23T13:52:31;10.57;;;4.43;;
75441;SDS011;64019;48.312;14.226;2022-11-23T13:57:37;5.67;;;4.27;;
75441;SDS011;64019;48.312;14.226;2022-11-23T14:28:20;5.37;;;3.73;;
75441;SDS011;64019;48.312;14.226;2022-11-23T14:30:57;4.87;;;4.00;;
75441;SDS011;64019;48.312;14.226;2022-11-23T14:33:40;8.33;;;3.93;;
75441;SDS011;64019;48.312;14.226;2022-11-23T14:42:18;6.13;;;3.83;;
75441;SDS011;64019;48.312;14.226;2022-11-23T14:44:47;8.53;;;5.13;;
75441;SDS011;64019;48.312;14.226;2022-11-23T14:47:20;6.80;;;4.47;;
75441;SDS011;64019;48.312;14.226;2022-11-23T14:49:56;5.53;;;3.83;;
75441;SDS011;64019;48.312;14.226;2022-11-23T14:52:23;9.37;;;4.00;;
75441;SDS011;64019;48.312;14.226;2022-11-23T14:54:56;6.50;;;4.60;;
75441;SDS011;64019;48.312;14.226;2022-11-23T14:57:25;7.70;;;3.63;;
75441;SDS011;64019;48.312;14.226;2022-11-23T14:59:58;4.93;;;3.20;;
75441;SDS011;64019;48.312;14.226;2022-11-23T15:02:36;6.10;;;3.90;;
75441;SDS011;64019;48.312;14.226;2022-11-23T15:05:05;6.03;;;3.67;;
75441;SDS011;64019;48.312;14.226;2022-11-23T15:07:50;6.00;;;3.13;;
75441;SDS011;64019;48.312;14.226;2022-11-23T15:16:09;4.70;;;2.17;;
75441;SDS011;64019;48.312;14.226;2022-11-23T15:18:36;6.70;;;2.37;;
75441;SDS011;64019;48.312;14.226;2022-11-23T15:21:03;7.00;;;3.20;;
75441;SDS011;64019;48.312;14.226;2022-11-23T15:23:34;5.03;;;3.50;;
75441;SDS011;64019;48.312;14.226;2022-11-23T15:26:25;6.77;;;3.57;;
75441;SDS011;64019;48.312;14.226;2022-11-23T15:28:56;6.83;;;4.20;;
75441;SDS011;64019;48.312;14.226;2022-11-23T15:31:34;6.33;;;3.97;;
75441;SDS011;64019;48.312;14.226;2022-11-23T15:34:05;11.23;;;5.23;;
75441;SDS011;64019;48.312;14.226;2022-11-23T15:36:37;9.83;;;5.07;;
75441;SDS011;64019;48.312;14.226;2022-11-23T15:39:05;9.97;;;5.40;;
75441;SDS011;64019;48.312;14.226;2022-11-23T15:41:37;6.07;;;4.23;;
75441;SDS011;64019;48.312;14.226;2022-11-23T15:46:49;7.47;;;4.27;;
75441;SDS011;64019;48.312;14.226;2022-11-23T15:49:22;6.87;;;3.80;;
75441;SDS011;64019;48.312;14.226;2022-11-23T15:51:48;4.70;;;3.57;;
75441;SDS011;64019;48.312;14.226;2022-11-23T15:54:27;6.50;;;4.37;;
75441;SDS011;64019;48.312;14.226;2022-11-23T15:56:58;8.77;;;4.90;;
75441;SDS011;64019;48.312;14.226;2022-11-23T16:02:21;7.60;;;4.10;;
75441;SDS011;64019;48.312;14.226;2022-11-23T16:05:03;5.93;;;4.27;;
75441;SDS011;64019;48.312;14.226;2022-11-23T16:07:29;6.70;;;4.30;;
75441;SDS011;64019;48.312;14.226;2022-11-23T16:12:31;8.53;;;4.83;;
75441;SDS011;64019;48.312;14.226;2022-11-23T16:15:28;9.43;;;5.10;;
75441;SDS011;64019;48.312;14.226;2022-11-23T16:18:02;8.53;;;4.97;;
75441;SDS011;64019;48.312;14.226;2022-11-23T16:20:30;8.67;;;5.20;;
75441;SDS011;64019;48.312;14.226;2022-11-23T16:22:56;8.00;;;5.00;;
75441;SDS011;64019;48.312;14.226;2022-11-23T16:25:28;14.43;;;5.83;;
75441;SDS011;64019;48.312;14.226;2022-11-23T16:28:17;10.90;;;4.77;;
75441;SDS011;64019;48.312;14.226;2022-11-23T16:30:45;7.60;;;5.00;;
75441;SDS011;64019;48.312;14.226;2022-11-23T16:33:12;8.97;;;5.63;;
75441;SDS011;64019;48.312;14.226;2022-11-23T16:35:42;10.57;;;6.17;;
75441;SDS011;64019;48.312;14.226;2022-11-23T16:38:09;9.37;;;5.20;;
75441;SDS011;64019;48.312;14.226;2022-11-23T16:40:36;9.50;;;5.33;;
75441;SDS011;64019;48.312;14.226;2022-11-23T16:43:03;8.50;;;5.30;;
75441;SDS011;64019;48.312;14.226;2022-11-23T16:45:29;7.10;;;4.87;;
75441;SDS011;64019;48.312;14.226;2022-11-23T16:48:00;8.90;;;5.17;;
75441;SDS011;64019;48.312;14.226;2022-11-23T16:50:27;10.73;;;6.10;;
75441;SDS011;64019;48.312;14.226;2022-11-23T16:52:56;13.77;;;8.00;;
75441;SDS011;64019;48.312;14.226;2022-11-23T16:55:25;13.47;;;8.67;;
75441;SDS011;64019;48.312;14.226;2022-11-23T16:57:50;12.57;;;8.20;;
75441;SDS011;64019;48.312;14.226;2022-11-23T17:00:18;11.50;;;7.27;;
75441;SDS011;64019;48.312;14.226;2022-11-23T17:02:45;12.73;;;7.20;;
75441;SDS011;64019;48.312;14.226;2022-11-23T17:05:18;14.57;;;6.73;;
75441;SDS011;64019;48.312;14.226;2022-11-23T17:07:45;10.13;;;6.53;;
75441;SDS011;64019;48.312;14.226;2022-11-23T17:10:12;8.57;;;6.30;;
75441;SDS011;64019;48.312;14.226;2022-11-23T17:12:38;13.97;;;7.87;;
75441;SDS011;64019;48.312;14.226;2022-11-23T17:15:05;11.87;;;7.90;;
75441;SDS011;64019;48.312;14.226;2022-11-23T17:17:32;11.07;;;7.33;;
75441;SDS011;64019;48.312;14.226;2022-11-23T17:19:58;12.57;;;7.87;;
75441;SDS011;64019;48.312;14.226;2022-11-23T17:22:23;13.60;;;7.20;;
75441;SDS011;64019;48.312;14.226;2022-11-23T17:24:49;11.90;;;6.13;;
75441;SDS011;64019;48.312;14.226;2022-11-23T17:27:18;11.43;;;7.20;;
75441;SDS011;64019;48.312;14.226;2022-11-23T17:29:58;15.33;;;7.60;;
75441;SDS011;64019;48.312;14.226;2022-11-23T17:32:26;37.43;;;16.50;;
75441;SDS011;64019;48.312;14.226;2022-11-23T17:34:52;34.10;;;16.30;;